BRU weather

Brussels Airport
Brussels, Brussels-Capital Region, Belgium

Public forecast

Using degrees Celsius for public forecast. Weather courtesy of forecast.io.

METAR (pilot weather report)

Retrieved 2017/09/25 05:20 UTC (0 seconds ago):

EBBR 250520Z 09002KT 1600 0700E R25L/1800D R25R/1100U R01/P2000N BCFG NSC 09/08 Q1020 NOSIG

TAF (pilot weather forecast)

Retrieved 2017/09/25 00:56 UTC (4 hours ago):

TAF COR EBBR 250135Z 2500/2606 09004KT 4500 BR NSC TEMPO 2502/2507 2500 BR PROB30 TEMPO 2504/2507 1200 BCFG BECMG 2507/2509 8000 NSW BECMG 2600/2602 3000 BR PROB40 TEMPO 2603/2606 0600 FG BKN001